Time,TemperatureF,DewpointF,PressureIn,WindDirection,WindDirectionDegrees,WindSpeedMPH,WindSpeedGustMPH,Humidity,HourlyPrecipIn,Conditions,Clouds,dailyrainin,SoftwareType,DateUTC
2013-03-04 00:00:00,43.3,37.2,30.05,SSW,194,3.5,3.5,79,0.00,CLR,,0.00,WeatherDisplay:10.37,2013-03-04 00:00:00,
2013-03-04 00:05:00,43.3,37.2,30.05,SSW,194,1.1,1.1,79,0.00,CLR,,0.00,WeatherDisplay:10.37,2013-03-04 00:05:00,
2013-03-04 00:10:00,43.3,36.9,30.05,SSW,194,2.0,2.0,78,0.00,CLR,,0.00,WeatherDisplay:10.37,2013-03-04 00:10:00,
2013-03-04 00:16:00,43.2,36.8,30.05,SSW,194,0.0,0.0,78,0.00,CLR,,0.00,WeatherDisplay:10.37,2013-03-04 00:16:00,
2013-03-04 00:21:00,43.2,36.8,30.05,SSW,194,0.0,0.0,78,0.00,CLR,,0.00,WeatherDisplay:10.37,2013-03-04 00:21:00,
2013-03-04 00:26:00,43.2,36.8,30.05,SSW,194,0.0,0.0,78,0.00,CLR,,0.00,WeatherDisplay:10.37,2013-03-04 00:26:00,
2013-03-04 00:31:00,43.2,36.5,30.04,SSW,194,0.0,0.0,77,0.00,CLR,,0.00,WeatherDisplay:10.37,2013-03-04 00:31:00,
2013-03-04 00:36:00,43.1,36.7,30.04,SSW,194,0.0,0.0,78,0.00,CLR,,0.00,WeatherDisplay:10.37,2013-03-04 00:36:00,
2013-03-04 00:41:00,43.1,36.7,30.04,SSW,194,1.1,1.1,78,0.00,CLR,,0.00,WeatherDisplay:10.37,2013-03-04 00:41:00,
2013-03-04 00:46:00,43.1,36.7,30.04,SSW,194,2.3,2.3,78,0.00,CLR,,0.00,WeatherDisplay:10.37,2013-03-04 00:46:00,
2013-03-04 00:52:00,43.0,36.3,30.04,SSW,194,3.5,3.5,77,0.00,CLR,,0.00,WeatherDisplay:10.37,2013-03-04 00:52:00,
2013-03-04 00:57:00,43.1,36.4,30.04,SSW,194,3.5,3.5,77,0.00,CLR,,0.00,WeatherDisplay:10.37,2013-03-04 00:57:00,
2013-03-04 01:02:00,43.1,36.4,30.04,SSW,194,4.0,4.0,77,0.00,CLR,,0.00,WeatherDisplay:10.37,2013-03-04 01:02:00,
2013-03-04 01:07:00,43.1,36.4,30.04,SSW,194,1.1,1.1,77,0.00,CLR,,0.00,WeatherDisplay:10.37,2013-03-04 01:07:00,
2013-03-04 01:12:00,43.2,36.5,30.04,SSW,194,0.0,0.0,77,0.00,CLR,,0.00,WeatherDisplay:10.37,2013-03-04 01:12:00,
2013-03-04 01:17:00,43.1,36.4,30.04,SSW,194,2.3,0.0,77,0.00,CLR,,0.00,WeatherDisplay:10.37,2013-03-04 01:17:00,
2013-03-04 01:22:00,43.1,36.7,30.04,SSW,194,2.0,2.0,78,0.00,CLR,,0.00,WeatherDisplay:10.37,2013-03-04 01:22:00,
2013-03-04 01:27:00,43.1,36.7,30.04,SSW,194,2.3,2.3,78,0.00,CLR,,0.00,WeatherDisplay:10.37,2013-03-04 01:27:00,
2013-03-04 01:32:00,43.1,36.7,30.03,SSW,194,3.5,3.5,78,0.00,CLR,,0.00,WeatherDisplay:10.37,2013-03-04 01:32:00,
2013-03-04 01:37:00,43.0,36.6,30.03,SSW,194,3.5,3.5,78,0.00,CLR,,0.00,WeatherDisplay:10.37,2013-03-04 01:37:00,
2013-03-04 01:42:00,43.0,36.6,30.03,SSW,194,3.5,3.5,78,0.00,CLR,,0.00,WeatherDisplay:10.37,2013-03-04 01:42:00,
2013-03-04 01:48:00,43.1,36.4,30.03,SSW,194,4.6,4.6,77,0.00,CLR,,0.00,WeatherDisplay:10.37,2013-03-04 01:48:00,
2013-03-04 01:53:00,43.1,36.4,30.03,SSW,194,3.5,3.5,77,0.00,CLR,,0.00,WeatherDisplay:10.37,2013-03-04 01:53:00,
2013-03-04 01:58:00,43.1,36.7,30.03,SSW,194,1.1,0.0,78,0.00,CLR,,0.00,WeatherDisplay:10.37,2013-03-04 01:58:00,
2013-03-04 02:03:00,43.1,36.7,30.02,SSW,194,3.5,3.5,78,0.00,CLR,,0.00,WeatherDisplay:10.37,2013-03-04 02:03:00,
2013-03-04 02:08:00,43.1,36.7,30.02,SSW,194,3.5,3.5,78,0.00,CLR,,0.00,WeatherDisplay:10.37,2013-03-04 02:08:00,
2013-03-04 02:13:00,43.0,36.6,30.02,SSW,194,2.3,2.3,78,0.00,CLR,,0.00,WeatherDisplay:10.37,2013-03-04 02:13:00,
2013-03-04 02:18:00,43.0,36.6,30.02,SSW,195,2.3,2.3,78,0.00,CLR,,0.00,WeatherDisplay:10.37,2013-03-04 02:18:00,
2013-03-04 02:23:00,42.9,36.5,30.02,SSW,195,1.1,1.1,78,0.00,CLR,,0.00,WeatherDisplay:10.37,2013-03-04 02:23:00,
2013-03-04 02:28:00,42.9,36.5,30.02,SSW,194,3.5,3.5,78,0.00,CLR,,0.00,WeatherDisplay:10.37,2013-03-04 02:28:00,
2013-03-04 02:33:00,42.9,36.5,30.02,SSW,195,0.0,0.0,78,0.00,CLR,,0.00,WeatherDisplay:10.37,2013-03-04 02:33:00,
2013-03-04 02:38:00,42.9,36.5,30.02,SSW,194,2.3,2.3,78,0.00,CLR,,0.00,WeatherDisplay:10.37,2013-03-04 02:38:00,
2013-03-04 02:43:00,42.9,36.5,30.02,SSW,194,3.5,3.5,78,0.00,CLR,,0.00,WeatherDisplay:10.37,2013-03-04 02:43:00,
2013-03-04 02:48:00,42.9,36.2,30.01,SSW,194,3.5,3.5,77,0.00,CLR,,0.00,WeatherDisplay:10.37,2013-03-04 02:48:00,
2013-03-04 02:53:00,42.9,36.2,30.01,SSW,194,2.3,2.3,77,0.00,CLR,,0.00,WeatherDisplay:10.37,2013-03-04 02:53:00,
2013-03-04 02:58:00,42.9,36.2,30.01,SSW,194,2.3,2.3,77,0.00,CLR,,0.00,WeatherDisplay:10.37,2013-03-04 02:58:00,
2013-03-04 03:03:00,42.9,36.5,30.00,SSW,194,0.0,0.0,78,0.00,CLR,,0.00,WeatherDisplay:10.37,2013-03-04 03:03:00,
2013-03-04 03:09:00,42.9,36.5,30.00,SSW,194,1.1,0.0,78,0.00,CLR,,0.00,WeatherDisplay:10.37,2013-03-04 03:09:00,
2013-03-04 03:14:00,42.9,36.5,30.00,SSW,194,1.1,1.1,78,0.00,CLR,,0.00,WeatherDisplay:10.37,2013-03-04 03:14:00,
2013-03-04 03:19:00,42.8,36.4,30.00,SSW,194,2.3,0.0,78,0.00,CLR,,0.00,WeatherDisplay:10.37,2013-03-04 03:19:00,
2013-03-04 03:24:00,42.8,36.7,30.00,SSW,195,0.0,0.0,79,0.00,CLR,,0.00,WeatherDisplay:10.37,2013-03-04 03:24:00,
2013-03-04 03:29:00,42.8,36.7,30.00,SSW,194,0.0,0.2,79,0.00,CLR,,0.00,WeatherDisplay:10.37,2013-03-04 03:29:00,
2013-03-04 03:34:00,42.7,36.6,29.99,SSW,194,0.0,0.0,79,0.00,CLR,,0.00,WeatherDisplay:10.37,2013-03-04 03:34:00,
2013-03-04 03:39:00,42.7,36.6,29.99,SSW,194,1.1,0.0,79,0.00,CLR,,0.00,WeatherDisplay:10.37,2013-03-04 03:39:00,
2013-03-04 03:44:00,42.6,36.5,29.99,SSW,195,1.0,0.0,79,0.00,CLR,,0.00,WeatherDisplay:10.37,2013-03-04 03:44:00,
2013-03-04 03:49:00,42.5,36.8,29.99,SSW,194,0.0,0.0,80,0.00,CLR,,0.00,WeatherDisplay:10.37,2013-03-04 03:49:00,
2013-03-04 03:54:00,42.4,36.7,29.99,SSW,194,1.1,1.1,80,0.00,CLR,,0.00,WeatherDisplay:10.37,2013-03-04 03:54:00,
2013-03-04 03:59:00,42.4,36.7,29.99,SSW,195,1.1,0.0,80,0.00,CLR,,0.00,WeatherDisplay:10.37,2013-03-04 03:59:00,
2013-03-04 04:04:00,42.3,36.6,29.99,SSW,194,0.0,0.0,80,0.00,CLR,,0.00,WeatherDisplay:10.37,2013-03-04 04:04:00,
2013-03-04 04:09:00,42.3,36.6,29.99,SSW,194,1.1,1.1,80,0.00,CLR,,0.00,WeatherDisplay:10.37,2013-03-04 04:09:00,
2013-03-04 04:14:00,42.2,36.5,29.99,SSW,194,2.3,2.3,80,0.00,CLR,,0.00,WeatherDisplay:10.37,2013-03-04 04:14:00,
2013-03-04 04:19:00,42.2,36.8,29.98,SSW,195,0.0,0.0,81,0.00,CLR,,0.00,WeatherDisplay:10.37,2013-03-04 04:19:00,
2013-03-04 04:24:00,42.1,36.7,29.98,SSW,195,1.1,1.1,81,0.00,CLR,,0.00,WeatherDisplay:10.37,2013-03-04 04:24:00,
2013-03-04 04:29:00,42.1,36.7,29.98,SSW,194,1.0,1.0,81,0.00,CLR,,0.00,WeatherDisplay:10.37,2013-03-04 04:29:00,
2013-03-04 04:34:00,42.0,36.6,29.98,SSW,194,0.0,0.0,81,0.00,CLR,,0.00,WeatherDisplay:10.37,2013-03-04 04:34:00,
2013-03-04 04:39:00,42.0,36.6,29.98,SSW,194,3.5,3.5,81,0.00,CLR,,0.00,WeatherDisplay:10.37,2013-03-04 04:39:00,
2013-03-04 04:44:00,42.0,36.6,29.98,SSW,194,3.5,3.5,81,0.00,CLR,,0.00,WeatherDisplay:10.37,2013-03-04 04:44:00,
2013-03-04 04:49:00,42.0,36.3,29.98,SSW,194,3.5,3.5,80,0.00,CLR,,0.00,WeatherDisplay:10.37,2013-03-04 04:49:00,
2013-03-04 04:54:00,42.0,36.3,29.98,SSW,194,2.3,0.0,80,0.00,CLR,,0.00,WeatherDisplay:10.37,2013-03-04 04:54:00,
2013-03-04 04:59:00,42.0,36.3,29.98,SSW,194,3.5,3.5,80,0.00,CLR,,0.00,WeatherDisplay:10.37,2013-03-04 04:59:00,
2013-03-04 05:00:00,42.0,36.3,29.98,SSW,194,3.5,3.5,80,0.00,CLR,,0.00,WeatherDisplay:10.37,2013-03-04 05:00:00,
2013-03-04 05:01:00,42.0,36.3,29.98,SSW,194,3.5,3.5,80,0.00,CLR,,0.00,WeatherDisplay:10.37,2013-03-04 05:01:00,
2013-03-04 05:02:00,41.9,36.2,29.98,SSW,194,2.3,2.3,80,0.00,CLR,,0.00,WeatherDisplay:10.37,2013-03-04 05:02:00,
2013-03-04 05:07:00,42.0,36.3,29.98,SSW,194,1.1,0.0,80,0.00,CLR,,0.00,WeatherDisplay:10.37,2013-03-04 05:07:00,
2013-03-04 05:12:00,42.0,36.3,29.98,SSW,194,4.0,4.0,80,0.00,CLR,,0.00,WeatherDisplay:10.37,2013-03-04 05:12:00,
2013-03-04 05:17:00,41.9,35.9,29.97,SSW,194,1.1,0.0,79,0.00,CLR,,0.00,WeatherDisplay:10.37,2013-03-04 05:17:00,
2013-03-04 05:22:00,42.0,36.0,29.97,SSW,194,2.3,2.3,79,0.00,CLR,,0.00,WeatherDisplay:10.37,2013-03-04 05:22:00,
2013-03-04 05:27:00,42.0,36.0,29.97,SSW,194,0.0,0.3,79,0.00,CLR,,0.00,WeatherDisplay:10.37,2013-03-04 05:27:00,
2013-03-04 05:32:00,41.9,35.9,29.97,SSW,194,3.0,3.0,79,0.00,CLR,,0.00,WeatherDisplay:10.37,2013-03-04 05:32:00,
2013-03-04 05:37:00,41.9,35.9,29.97,SSW,194,0.0,0.0,79,0.00,CLR,,0.00,WeatherDisplay:10.37,2013-03-04 05:37:00,
2013-03-04 05:42:00,41.9,35.9,29.97,SSW,195,1.1,0.0,79,0.00,CLR,,0.00,WeatherDisplay:10.37,2013-03-04 05:42:00,
2013-03-04 05:47:00,41.9,35.9,29.96,SSW,194,0.0,0.0,79,0.00,CLR,,0.00,WeatherDisplay:10.37,2013-03-04 05:47:00,
2013-03-04 05:52:00,41.8,35.8,29.96,SSW,195,0.0,0.7,79,0.00,CLR,,0.00,WeatherDisplay:10.37,2013-03-04 05:52:00,
2013-03-04 05:57:00,41.8,35.8,29.96,SSW,194,0.0,0.0,79,0.00,CLR,,0.00,WeatherDisplay:10.37,2013-03-04 05:57:00,
2013-03-04 06:02:00,41.8,36.1,29.96,SSW,194,2.3,2.3,80,0.00,CLR,,0.00,WeatherDisplay:10.37,2013-03-04 06:02:00,
2013-03-04 06:07:00,41.7,35.7,29.96,SSW,194,3.5,3.5,79,0.00,CLR,,0.00,WeatherDisplay:10.37,2013-03-04 06:07:00,
2013-03-04 06:12:00,41.7,35.7,29.96,SSW,194,1.1,0.0,79,0.00,CLR,,0.00,WeatherDisplay:10.37,2013-03-04 06:12:00,
2013-03-04 06:17:00,41.7,36.0,29.96,SSW,194,1.1,0.0,80,0.00,CLR,,0.00,WeatherDisplay:10.37,2013-03-04 06:17:00,
2013-03-04 06:22:00,41.6,35.6,29.96,SSW,194,0.0,0.0,79,0.00,CLR,,0.00,WeatherDisplay:10.37,2013-03-04 06:22:00,
2013-03-04 06:27:00,41.6,35.9,29.96,SSW,194,0.0,0.0,80,0.00,CLR,,0.00,WeatherDisplay:10.37,2013-03-04 06:27:00,
2013-03-04 06:32:00,41.6,35.9,29.96,SSW,195,1.1,0.0,80,0.00,CLR,,0.00,WeatherDisplay:10.37,2013-03-04 06:32:00,
2013-03-04 06:37:00,41.5,35.8,29.96,SSW,194,1.1,0.0,80,0.00,CLR,,0.00,WeatherDisplay:10.37,2013-03-04 06:37:00,
2013-03-04 06:42:00,41.5,35.8,29.96,SSW,194,0.0,0.4,80,0.00,CLR,,0.00,WeatherDisplay:10.37,2013-03-04 06:42:00,
2013-03-04 06:47:00,41.4,35.7,29.96,SSW,194,0.0,0.0,80,0.00,CLR,,0.00,WeatherDisplay:10.37,2013-03-04 06:47:00,
2013-03-04 06:52:00,41.4,35.7,29.96,SSW,194,0.0,0.0,80,0.00,CLR,,0.00,WeatherDisplay:10.37,2013-03-04 06:52:00,
2013-03-04 06:57:00,41.4,35.7,29.96,SSW,194,1.1,0.0,80,0.00,CLR,,0.00,WeatherDisplay:10.37,2013-03-04 06:57:00,
2013-03-04 07:02:00,41.4,35.7,29.95,SSW,194,0.0,0.1,80,0.00,CLR,,0.00,WeatherDisplay:10.37,2013-03-04 07:02:00,
2013-03-04 07:07:00,41.3,35.6,29.95,SSW,194,0.0,0.0,80,0.00,CLR,,0.00,WeatherDisplay:10.37,2013-03-04 07:07:00,
2013-03-04 07:12:00,41.3,35.6,29.95,SSW,195,0.0,0.0,80,0.00,CLR,,0.00,WeatherDisplay:10.37,2013-03-04 07:12:00,
2013-03-04 07:17:00,41.3,35.6,29.95,SSW,195,0.0,0.0,80,0.00,CLR,,0.00,WeatherDisplay:10.37,2013-03-04 07:17:00,
2013-03-04 07:22:00,41.2,35.5,29.95,SSW,194,0.0,0.0,80,0.00,CLR,,0.00,WeatherDisplay:10.37,2013-03-04 07:22:00,
2013-03-04 07:27:00,41.2,35.5,29.95,SSW,194,0.0,0.0,80,0.00,CLR,,0.00,WeatherDisplay:10.37,2013-03-04 07:27:00,
2013-03-04 07:32:00,41.2,35.5,29.95,SSW,197,1.1,1.1,80,0.00,CLR,,0.00,WeatherDisplay:10.37,2013-03-04 07:32:00,
2013-03-04 07:37:00,41.2,35.5,29.95,SSW,205,0.0,0.0,80,0.00,CLR,,0.00,WeatherDisplay:10.37,2013-03-04 07:37:00,
2013-03-04 07:42:00,41.2,35.5,29.95,SSW,195,0.0,0.0,80,0.00,CLR,,0.00,WeatherDisplay:10.37,2013-03-04 07:42:00,
2013-03-04 07:47:00,41.2,35.5,29.95,SSW,195,0.0,0.0,80,0.00,CLR,,0.00,WeatherDisplay:10.37,2013-03-04 07:47:00,
2013-03-04 07:52:00,41.2,35.5,29.95,SSE,153,1.1,0.0,80,0.00,CLR,,0.00,WeatherDisplay:10.37,2013-03-04 07:52:00,
2013-03-04 07:57:00,41.2,35.5,29.95,SE,144,0.0,0.0,80,0.00,CLR,,0.00,WeatherDisplay:10.37,2013-03-04 07:57:00,
2013-03-04 08:02:00,41.3,35.9,29.95,SE,145,0.0,0.0,81,0.00,CLR,,0.00,WeatherDisplay:10.37,2013-03-04 08:02:00,
2013-03-04 08:07:00,41.3,35.9,29.95,SSE,154,0.0,0.0,81,0.00,CLR,,0.00,WeatherDisplay:10.37,2013-03-04 08:07:00,
2013-03-04 08:12:00,41.3,35.9,29.95,East,98,1.1,0.0,81,0.00,CLR,,0.00,WeatherDisplay:10.37,2013-03-04 08:12:00,
2013-03-04 08:17:00,41.4,36.0,29.95,East,97,0.0,0.0,81,0.00,CLR,,0.00,WeatherDisplay:10.37,2013-03-04 08:17:00,
2013-03-04 08:22:00,41.5,35.8,29.95,East,98,0.0,0.0,80,0.00,CLR,,0.00,WeatherDisplay:10.37,2013-03-04 08:22:00,
2013-03-04 08:27:00,41.5,36.1,29.95,East,98,0.0,0.3,81,0.00,CLR,,0.00,WeatherDisplay:10.37,2013-03-04 08:27:00,
2013-03-04 08:32:00,41.6,36.2,29.94,East,98,0.0,0.0,81,0.00,CLR,,0.00,WeatherDisplay:10.37,2013-03-04 08:32:00,
2013-03-04 08:37:00,41.7,36.3,29.94,East,98,2.3,2.3,81,0.00,CLR,,0.00,WeatherDisplay:10.37,2013-03-04 08:37:00,
2013-03-04 08:42:00,41.8,36.4,29.94,East,98,2.0,2.0,81,0.00,CLR,,0.00,WeatherDisplay:10.37,2013-03-04 08:42:00,
2013-03-04 08:47:00,41.9,36.2,29.94,East,98,0.0,0.0,80,0.00,CLR,,0.00,WeatherDisplay:10.37,2013-03-04 08:47:00,
2013-03-04 08:52:00,42.1,36.4,29.94,ESE,111,3.0,3.0,80,0.00,CLR,,0.00,WeatherDisplay:10.37,2013-03-04 08:52:00,
2013-03-04 08:57:00,42.2,36.2,29.94,SE,126,3.5,3.5,79,0.00,CLR,,0.00,WeatherDisplay:10.37,2013-03-04 08:57:00,
2013-03-04 09:02:00,42.3,36.3,29.93,SE,126,1.1,0.0,79,0.00,CLR,,0.00,WeatherDisplay:10.37,2013-03-04 09:02:00,
2013-03-04 09:07:00,42.5,36.4,29.93,SE,125,2.3,2.3,79,0.00,CLR,,0.00,WeatherDisplay:10.37,2013-03-04 09:07:00,
2013-03-04 09:12:00,42.6,36.2,29.93,SE,126,3.5,3.5,78,0.00,CLR,,0.00,WeatherDisplay:10.37,2013-03-04 09:12:00,
2013-03-04 09:17:00,42.7,36.3,29.93,SE,125,3.5,3.5,78,0.00,CLR,,0.00,WeatherDisplay:10.37,2013-03-04 09:17:00,
2013-03-04 09:22:00,42.9,36.5,29.93,SE,126,2.3,2.3,78,0.00,CLR,,0.00,WeatherDisplay:10.37,2013-03-04 09:22:00,
2013-03-04 09:27:00,43.0,36.6,29.93,SE,126,1.1,1.1,78,0.00,CLR,,0.00,WeatherDisplay:10.37,2013-03-04 09:27:00,
2013-03-04 09:32:00,43.2,36.5,29.93,SSE,152,4.0,4.0,77,0.00,CLR,,0.00,WeatherDisplay:10.37,2013-03-04 09:32:00,
2013-03-04 09:37:00,43.3,36.2,29.93,SSE,151,3.5,3.5,76,0.00,CLR,,0.00,WeatherDisplay:10.37,2013-03-04 09:37:00,
2013-03-04 09:42:00,43.4,36.3,29.93,SSE,151,3.5,3.5,76,0.00,CLR,,0.00,WeatherDisplay:10.37,2013-03-04 09:42:00,
2013-03-04 09:47:00,43.6,36.5,29.92,SSE,151,3.5,3.5,76,0.00,CLR,,0.00,WeatherDisplay:10.37,2013-03-04 09:47:00,
2013-03-04 09:52:00,43.7,36.6,29.92,SSE,162,5.8,5.8,76,0.00,CLR,,0.00,WeatherDisplay:10.37,2013-03-04 09:52:00,
2013-03-04 09:57:00,43.8,37.1,29.92,SSE,161,2.3,2.3,77,0.00,CLR,,0.00,WeatherDisplay:10.37,2013-03-04 09:57:00,
2013-03-04 10:02:00,44.0,37.3,29.92,SSE,161,2.3,2.3,77,0.00,CLR,,0.00,WeatherDisplay:10.37,2013-03-04 10:02:00,
2013-03-04 10:07:00,44.2,36.8,29.92,SSE,161,3.5,3.5,75,0.00,CLR,,0.00,WeatherDisplay:10.37,2013-03-04 10:07:00,
2013-03-04 10:12:00,44.3,36.5,29.92,SSE,153,3.5,3.5,74,0.00,CLR,,0.00,WeatherDisplay:10.37,2013-03-04 10:12:00,
2013-03-04 10:17:00,44.4,36.6,29.91,South,170,3.5,3.5,74,0.00,CLR,,0.00,WeatherDisplay:10.37,2013-03-04 10:17:00,
2013-03-04 10:22:00,44.5,36.4,29.91,SSE,167,3.5,3.5,73,0.00,CLR,,0.00,WeatherDisplay:10.37,2013-03-04 10:22:00,
2013-03-04 10:27:00,44.7,36.6,29.91,SSE,167,2.3,2.3,73,0.00,CLR,,0.00,WeatherDisplay:10.37,2013-03-04 10:27:00,
2013-03-04 10:32:00,44.8,36.0,29.91,SSE,167,3.5,3.5,71,0.00,CLR,,0.00,WeatherDisplay:10.37,2013-03-04 10:32:00,
2013-03-04 10:37:00,44.9,36.1,29.91,SSE,167,0.0,0.0,71,0.00,CLR,,0.00,WeatherDisplay:10.37,2013-03-04 10:37:00,
2013-03-04 10:42:00,45.0,36.2,29.91,SSE,167,0.0,0.0,71,0.00,CLR,,0.00,WeatherDisplay:10.37,2013-03-04 10:42:00,
2013-03-04 10:47:00,45.0,36.2,29.90,SSE,167,0.0,0.0,71,0.00,CLR,,0.00,WeatherDisplay:10.37,2013-03-04 10:47:00,
2013-03-04 10:52:00,45.1,37.0,29.90,SSE,167,0.0,0.0,73,0.00,CLR,,0.00,WeatherDisplay:10.37,2013-03-04 10:52:00,
2013-03-04 10:57:00,45.1,36.6,29.90,SSE,167,1.1,1.1,72,0.00,CLR,,0.00,WeatherDisplay:10.37,2013-03-04 10:57:00,
2013-03-04 11:02:00,45.1,36.6,29.90,SSE,167,1.1,0.0,72,0.00,CLR,,0.00,WeatherDisplay:10.37,2013-03-04 11:02:00,
2013-03-04 11:07:00,45.1,36.6,29.90,SSE,150,3.5,3.5,72,0.00,CLR,,0.00,WeatherDisplay:10.37,2013-03-04 11:07:00,
2013-03-04 11:12:00,45.2,36.7,29.90,SSE,150,1.1,1.1,72,0.00,CLR,,0.00,WeatherDisplay:10.37,2013-03-04 11:12:00,
2013-03-04 11:17:00,45.2,36.0,29.90,SE,144,3.5,3.5,70,0.00,CLR,,0.00,WeatherDisplay:10.37,2013-03-04 11:17:00,
2013-03-04 11:22:00,45.2,36.7,29.90,SE,144,1.1,1.1,72,0.00,CLR,,0.00,WeatherDisplay:10.37,2013-03-04 11:22:00,
2013-03-04 11:27:00,45.2,36.7,29.90,SE,144,0.0,0.0,72,0.00,CLR,,0.00,WeatherDisplay:10.37,2013-03-04 11:27:00,
2013-03-04 11:32:00,45.2,36.4,29.90,SE,144,3.5,3.5,71,0.00,CLR,,0.00,WeatherDisplay:10.37,2013-03-04 11:32:00,
2013-03-04 11:37:00,45.3,36.4,29.90,SE,144,0.0,0.0,71,0.00,CLR,,0.00,WeatherDisplay:10.37,2013-03-04 11:37:00,
2013-03-04 11:42:00,45.5,36.6,29.90,SSE,150,3.0,3.0,71,0.00,CLR,,0.00,WeatherDisplay:10.37,2013-03-04 11:42:00,
2013-03-04 11:47:00,45.6,36.0,29.89,SSE,150,3.5,3.5,69,0.00,CLR,,0.00,WeatherDisplay:10.37,2013-03-04 11:47:00,
2013-03-04 11:52:00,45.8,36.2,29.89,SSE,150,3.5,3.5,69,0.00,CLR,,0.00,WeatherDisplay:10.37,2013-03-04 11:52:00,
2013-03-04 11:57:00,45.9,36.7,29.89,SSE,150,3.5,3.5,70,0.00,CLR,,0.00,WeatherDisplay:10.37,2013-03-04 11:57:00,
2013-03-04 12:02:00,46.0,36.0,29.88,SE,137,3.5,3.5,68,0.00,CLR,,0.00,WeatherDisplay:10.37,2013-03-04 12:02:00,
2013-03-04 12:07:00,46.0,36.4,29.88,SE,136,2.3,2.3,69,0.00,CLR,,0.00,WeatherDisplay:10.37,2013-03-04 12:07:00,
2013-03-04 12:12:00,46.1,36.5,29.88,SE,136,2.3,2.3,69,0.00,CLR,,0.00,WeatherDisplay:10.37,2013-03-04 12:12:00,
2013-03-04 12:17:00,46.2,37.0,29.88,SE,131,3.5,3.5,70,0.00,CLR,,0.00,WeatherDisplay:10.37,2013-03-04 12:17:00,
2013-03-04 12:22:00,46.2,36.6,29.88,SE,130,0.0,0.1,69,0.00,CLR,,0.00,WeatherDisplay:10.37,2013-03-04 12:22:00,
2013-03-04 12:27:00,46.3,36.7,29.88,SE,131,2.0,2.0,69,0.00,CLR,,0.00,WeatherDisplay:10.37,2013-03-04 12:27:00,
2013-03-04 12:32:00,46.6,37.0,29.87,ESE,111,3.5,3.5,69,0.00,CLR,,0.00,WeatherDisplay:10.37,2013-03-04 12:32:00,
2013-03-04 12:37:00,47.1,37.4,29.87,ESE,111,1.1,1.1,69,0.00,CLR,,0.00,WeatherDisplay:10.37,2013-03-04 12:37:00,
2013-03-04 12:42:00,47.5,37.5,29.87,ESE,111,0.0,0.0,68,0.00,CLR,,0.00,WeatherDisplay:10.37,2013-03-04 12:42:00,
2013-03-04 12:47:00,47.9,37.5,29.86,SE,142,1.0,0.0,67,0.00,CLR,,0.00,WeatherDisplay:10.37,2013-03-04 12:47:00,
2013-03-04 12:52:00,48.2,37.8,29.86,SE,142,1.0,0.0,67,0.00,CLR,,0.00,WeatherDisplay:10.37,2013-03-04 12:52:00,
2013-03-04 12:57:00,48.3,37.5,29.86,ESE,123,3.5,3.5,66,0.00,CLR,,0.00,WeatherDisplay:10.37,2013-03-04 12:57:00,
2013-03-04 13:02:00,48.3,37.1,29.85,ESE,123,4.6,4.6,65,0.00,CLR,,0.00,WeatherDisplay:10.37,2013-03-04 13:02:00,
2013-03-04 13:07:00,48.2,36.6,29.85,SE,125,3.5,3.5,64,0.00,CLR,,0.00,WeatherDisplay:10.37,2013-03-04 13:07:00,
2013-03-04 13:12:00,48.3,36.3,29.85,SE,124,3.5,3.5,63,0.00,CLR,,0.00,WeatherDisplay:10.37,2013-03-04 13:12:00,
2013-03-04 13:17:00,48.2,36.2,29.85,SE,125,2.3,2.3,63,0.00,CLR,,0.00,WeatherDisplay:10.37,2013-03-04 13:17:00,
2013-03-04 13:22:00,48.2,37.4,29.85,SE,125,0.0,0.0,66,0.00,CLR,,0.00,WeatherDisplay:10.37,2013-03-04 13:22:00,
2013-03-04 13:27:00,48.2,37.0,29.85,SE,125,3.5,3.5,65,0.00,CLR,,0.00,WeatherDisplay:10.37,2013-03-04 13:27:00,
2013-03-04 13:32:00,48.3,37.1,29.84,SE,125,0.0,0.0,65,0.00,CLR,,0.00,WeatherDisplay:10.37,2013-03-04 13:32:00,
2013-03-04 13:37:00,48.5,37.7,29.84,SE,125,1.1,1.1,66,0.00,CLR,,0.00,WeatherDisplay:10.37,2013-03-04 13:37:00,
2013-03-04 13:42:00,48.7,37.8,29.84,SE,125,0.0,0.0,66,0.00,CLR,,0.00,WeatherDisplay:10.37,2013-03-04 13:42:00,
2013-03-04 13:47:00,48.9,38.0,29.83,East,88,2.3,2.3,66,0.00,CLR,,0.00,WeatherDisplay:10.37,2013-03-04 13:47:00,
2013-03-04 13:52:00,48.8,37.2,29.83,ENE,68,8.1,8.1,64,0.00,CLR,,0.00,WeatherDisplay:10.37,2013-03-04 13:52:00,
2013-03-04 13:57:00,48.6,37.4,29.83,ENE,59,6.9,6.9,65,0.00,CLR,,0.00,WeatherDisplay:10.37,2013-03-04 13:57:00,
2013-03-04 14:02:00,48.4,37.2,29.82,ENE,61,5.0,5.0,65,0.00,CLR,,0.00,WeatherDisplay:10.37,2013-03-04 14:02:00,
2013-03-04 14:07:00,48.2,36.6,29.82,ENE,60,3.5,3.5,64,0.00,CLR,,0.00,WeatherDisplay:10.37,2013-03-04 14:07:00,
2013-03-04 14:12:00,48.0,36.8,29.82,NE,37,4.6,4.6,65,0.00,CLR,,0.00,WeatherDisplay:10.37,2013-03-04 14:12:00,
2013-03-04 14:17:00,47.8,36.6,29.82,NE,53,6.0,6.0,65,0.00,CLR,,0.00,WeatherDisplay:10.37,2013-03-04 14:17:00,
2013-03-04 14:22:00,47.7,36.9,29.82,ENE,78,5.8,5.8,66,0.00,CLR,,0.00,WeatherDisplay:10.37,2013-03-04 14:22:00,
2013-03-04 14:27:00,47.4,37.0,29.82,East,79,5.0,5.0,67,0.00,CLR,,0.00,WeatherDisplay:10.37,2013-03-04 14:27:00,
2013-03-04 14:32:00,47.3,36.9,29.81,SE,125,5.8,5.8,67,0.00,CLR,,0.00,WeatherDisplay:10.37,2013-03-04 14:32:00,
2013-03-04 14:37:00,47.1,36.7,29.81,East,82,5.0,5.0,67,0.00,CLR,,0.00,WeatherDisplay:10.37,2013-03-04 14:37:00,
2013-03-04 14:42:00,47.1,36.7,29.81,ENE,69,4.6,4.6,67,0.00,CLR,,0.00,WeatherDisplay:10.37,2013-03-04 14:42:00,
2013-03-04 14:47:00,47.1,36.7,29.80,NE,49,3.5,3.5,67,0.00,CLR,,0.00,WeatherDisplay:10.37,2013-03-04 14:47:00,
2013-03-04 14:52:00,47.2,37.2,29.80,East,80,3.5,3.5,68,0.00,CLR,,0.00,WeatherDisplay:10.37,2013-03-04 14:52:00,
2013-03-04 14:57:00,47.5,37.8,29.80,East,96,3.5,3.5,69,0.00,CLR,,0.00,WeatherDisplay:10.37,2013-03-04 14:57:00,
2013-03-04 15:02:00,47.9,37.8,29.79,ENE,64,4.6,4.6,68,0.00,CLR,,0.00,WeatherDisplay:10.37,2013-03-04 15:02:00,
2013-03-04 15:07:00,48.3,37.8,29.79,East,97,5.8,5.8,67,0.00,CLR,,0.00,WeatherDisplay:10.37,2013-03-04 15:07:00,
2013-03-04 15:12:00,48.3,37.5,29.79,ESE,105,8.1,8.1,66,0.00,CLR,,0.00,WeatherDisplay:10.37,2013-03-04 15:12:00,
2013-03-04 15:17:00,48.1,37.3,29.79,East,101,8.0,8.0,66,0.00,CLR,,0.00,WeatherDisplay:10.37,2013-03-04 15:17:00,
2013-03-04 15:22:00,47.9,37.5,29.79,East,85,5.8,5.8,67,0.00,CLR,,0.00,WeatherDisplay:10.37,2013-03-04 15:22:00,
2013-03-04 15:27:00,47.8,37.4,29.79,East,88,4.6,4.6,67,0.00,CLR,,0.00,WeatherDisplay:10.37,2013-03-04 15:27:00,
2013-03-04 15:32:00,47.6,37.6,29.78,East,89,6.9,6.9,68,0.00,CLR,,0.00,WeatherDisplay:10.37,2013-03-04 15:32:00,
2013-03-04 15:37:00,47.5,37.8,29.78,East,90,6.0,6.0,69,0.00,CLR,,0.00,WeatherDisplay:10.37,2013-03-04 15:37:00,
2013-03-04 15:42:00,47.2,37.2,29.78,ENE,60,4.6,4.6,68,0.00,CLR,,0.00,WeatherDisplay:10.37,2013-03-04 15:42:00,
2013-03-04 15:47:00,47.1,37.1,29.78,ESE,113,8.1,8.1,68,0.00,CLR,,0.00,WeatherDisplay:10.37,2013-03-04 15:47:00,
2013-03-04 15:52:00,46.8,37.2,29.78,East,100,5.8,5.8,69,0.00,CLR,,0.00,WeatherDisplay:10.37,2013-03-04 15:52:00,
2013-03-04 15:57:00,46.7,37.4,29.78,East,92,5.8,5.8,70,0.00,CLR,,0.00,WeatherDisplay:10.37,2013-03-04 15:57:00,
2013-03-04 16:02:00,46.6,37.3,29.77,East,93,5.8,5.8,70,0.00,CLR,,0.00,WeatherDisplay:10.37,2013-03-04 16:02:00,
2013-03-04 16:07:00,46.4,37.1,29.77,East,83,5.8,5.8,70,0.00,CLR,,0.00,WeatherDisplay:10.37,2013-03-04 16:07:00,
2013-03-04 16:12:00,46.2,37.0,29.77,ESE,108,9.2,9.2,70,0.00,CLR,,0.00,WeatherDisplay:10.37,2013-03-04 16:12:00,
2013-03-04 16:17:00,45.9,36.7,29.77,ENE,75,4.6,4.6,70,0.00,CLR,,0.00,WeatherDisplay:10.37,2013-03-04 16:17:00,
2013-03-04 16:22:00,45.7,36.8,29.77,East,79,5.0,5.0,71,0.00,CLR,,0.00,WeatherDisplay:10.37,2013-03-04 16:22:00,
2013-03-04 16:28:00,45.5,36.6,29.77,East,92,5.8,5.8,71,0.00,CLR,,0.00,WeatherDisplay:10.37,2013-03-04 16:28:00,
2013-03-04 16:33:00,45.3,36.8,29.77,ESE,105,4.6,4.6,72,0.00,CLR,,0.00,WeatherDisplay:10.37,2013-03-04 16:33:00,
2013-03-04 16:38:00,45.1,36.6,29.77,ESE,123,5.8,5.8,72,0.00,CLR,,0.00,WeatherDisplay:10.37,2013-03-04 16:38:00,
2013-03-04 16:43:00,44.9,36.4,29.77,East,98,5.8,5.8,72,0.00,CLR,,0.00,WeatherDisplay:10.37,2013-03-04 16:43:00,
2013-03-04 16:48:00,44.6,36.1,29.76,ESE,108,6.9,6.9,72,0.00,CLR,,0.00,WeatherDisplay:10.37,2013-03-04 16:48:00,
2013-03-04 16:53:00,44.3,35.8,29.76,ESE,114,9.2,9.2,72,0.00,CLR,,0.00,WeatherDisplay:10.37,2013-03-04 16:53:00,
2013-03-04 16:58:00,44.1,36.0,29.76,East,101,6.9,6.9,73,0.00,CLR,,0.00,WeatherDisplay:10.37,2013-03-04 16:58:00,
2013-03-04 17:03:00,43.9,35.8,29.76,ESE,105,3.5,3.5,73,0.00,CLR,,0.00,WeatherDisplay:10.37,2013-03-04 17:03:00,
2013-03-04 17:08:00,43.8,35.7,29.76,ESE,105,1.1,1.1,73,0.00,CLR,,0.00,WeatherDisplay:10.37,2013-03-04 17:08:00,
2013-03-04 17:13:00,43.6,35.9,29.76,ESE,105,3.5,3.5,74,0.00,CLR,,0.00,WeatherDisplay:10.37,2013-03-04 17:13:00,
2013-03-04 17:18:00,43.4,35.7,29.76,East,89,4.6,4.6,74,0.00,CLR,,0.00,WeatherDisplay:10.37,2013-03-04 17:18:00,
2013-03-04 17:23:00,43.2,35.8,29.76,East,96,3.5,3.5,75,0.00,CLR,,0.00,WeatherDisplay:10.37,2013-03-04 17:23:00,
2013-03-04 17:28:00,43.1,35.7,29.76,East,98,5.8,5.8,75,0.00,CLR,,0.00,WeatherDisplay:10.37,2013-03-04 17:28:00,
2013-03-04 17:33:00,43.0,36.0,29.76,ESE,103,6.9,6.9,76,0.00,CLR,,0.00,WeatherDisplay:10.37,2013-03-04 17:33:00,
2013-03-04 17:38:00,42.8,36.1,29.76,East,101,5.8,5.8,77,0.00,CLR,,0.00,WeatherDisplay:10.37,2013-03-04 17:38:00,
2013-03-04 17:43:00,42.7,36.0,29.76,East,101,4.6,4.6,77,0.00,CLR,,0.00,WeatherDisplay:10.37,2013-03-04 17:43:00,
2013-03-04 17:48:00,42.5,36.1,29.76,East,98,4.6,4.6,78,0.00,CLR,,0.00,WeatherDisplay:10.37,2013-03-04 17:48:00,
2013-03-04 17:53:00,42.4,36.3,29.76,East,101,5.8,5.8,79,0.00,CLR,,0.00,WeatherDisplay:10.37,2013-03-04 17:53:00,
2013-03-04 17:59:00,42.2,36.5,29.76,ESE,105,6.9,6.9,80,0.00,CLR,,0.00,WeatherDisplay:10.37,2013-03-04 17:59:00,
2013-03-04 18:04:00,42.0,36.3,29.76,ESE,105,3.5,3.5,80,0.00,CLR,,0.00,WeatherDisplay:10.37,2013-03-04 18:04:00,
2013-03-04 18:09:00,41.9,36.5,29.76,ESE,106,5.8,5.8,81,0.00,CLR,,0.00,WeatherDisplay:10.37,2013-03-04 18:09:00,
2013-03-04 18:14:00,41.8,36.4,29.76,ESE,106,6.9,6.9,81,0.00,CLR,,0.00,WeatherDisplay:10.37,2013-03-04 18:14:00,
2013-03-04 18:20:00,41.6,36.2,29.76,ESE,113,5.8,5.8,81,0.00,CLR,,0.00,WeatherDisplay:10.37,2013-03-04 18:20:00,
2013-03-04 18:25:00,41.5,36.4,29.76,ESE,113,4.0,4.0,82,0.00,CLR,,0.00,WeatherDisplay:10.37,2013-03-04 18:25:00,
2013-03-04 18:29:00,41.5,36.4,29.75,ESE,114,3.5,3.5,82,0.00,CLR,,0.00,WeatherDisplay:10.37,2013-03-04 18:29:00,
2013-03-04 18:30:00,41.5,36.4,29.75,ESE,113,2.3,2.3,82,0.00,CLR,,0.00,WeatherDisplay:10.37,2013-03-04 18:30:00,
2013-03-04 18:31:00,41.5,36.4,29.75,ESE,113,1.1,0.0,82,0.00,CLR,,0.00,WeatherDisplay:10.37,2013-03-04 18:31:00,
2013-03-04 18:37:00,41.3,36.2,29.75,ESE,114,3.5,3.5,82,0.00,CLR,,0.00,WeatherDisplay:10.37,2013-03-04 18:37:00,
2013-03-04 18:43:00,41.2,36.1,29.75,ESE,114,3.5,3.5,82,0.00,CLR,,0.00,WeatherDisplay:10.37,2013-03-04 18:43:00,
2013-03-04 18:48:00,41.1,36.3,29.75,ESE,114,2.3,2.3,83,0.00,CLR,,0.00,WeatherDisplay:10.37,2013-03-04 18:48:00,
2013-03-04 18:53:00,41.0,36.2,29.75,ESE,114,2.3,2.3,83,0.00,CLR,,0.00,WeatherDisplay:10.37,2013-03-04 18:53:00,
2013-03-04 18:58:00,40.9,36.1,29.75,ESE,114,1.1,1.1,83,0.00,CLR,,0.00,WeatherDisplay:10.37,2013-03-04 18:58:00,
2013-03-04 19:04:00,40.9,36.1,29.75,ESE,114,1.1,1.1,83,0.00,CLR,,0.00,WeatherDisplay:10.37,2013-03-04 19:04:00,
2013-03-04 19:09:00,40.7,35.9,29.75,ESE,114,2.3,2.3,83,0.00,CLR,,0.00,WeatherDisplay:10.37,2013-03-04 19:09:00,
2013-03-04 19:14:00,40.6,36.1,29.75,ESE,113,2.3,2.3,84,0.00,CLR,,0.00,WeatherDisplay:10.37,2013-03-04 19:14:00,
2013-03-04 19:19:00,40.6,36.1,29.75,ESE,113,1.1,0.0,84,0.00,CLR,,0.00,WeatherDisplay:10.37,2013-03-04 19:19:00,
2013-03-04 19:24:00,40.5,36.0,29.75,ESE,114,0.0,0.0,84,0.00,CLR,,0.00,WeatherDisplay:10.37,2013-03-04 19:24:00,
2013-03-04 19:29:00,40.4,35.9,29.75,ESE,114,0.0,0.0,84,0.00,CLR,,0.00,WeatherDisplay:10.37,2013-03-04 19:29:00,
2013-03-04 19:34:00,40.3,35.8,29.75,ESE,114,0.0,0.0,84,0.00,CLR,,0.00,WeatherDisplay:10.37,2013-03-04 19:34:00,
2013-03-04 19:39:00,40.3,35.8,29.75,ESE,114,0.0,0.0,84,0.00,CLR,,0.00,WeatherDisplay:10.37,2013-03-04 19:39:00,
2013-03-04 19:44:00,40.2,35.8,29.75,ESE,114,1.1,0.0,84,0.00,CLR,,0.00,WeatherDisplay:10.37,2013-03-04 19:44:00,
2013-03-04 19:49:00,40.1,35.7,29.75,ESE,115,0.0,0.0,84,0.00,CLR,,0.00,WeatherDisplay:10.37,2013-03-04 19:49:00,
2013-03-04 19:54:00,40.0,35.6,29.75,ESE,113,0.0,0.0,84,0.00,CLR,,0.00,WeatherDisplay:10.37,2013-03-04 19:54:00,
2013-03-04 19:59:00,39.9,35.5,29.74,ESE,114,0.0,0.0,84,0.00,CLR,,0.00,WeatherDisplay:10.37,2013-03-04 19:59:00,
2013-03-04 20:04:00,39.8,35.4,29.74,ESE,113,0.0,0.0,84,0.00,CLR,,0.00,WeatherDisplay:10.37,2013-03-04 20:04:00,
2013-03-04 20:09:00,39.7,35.6,29.74,ESE,114,1.1,0.0,85,0.00,CLR,,0.00,WeatherDisplay:10.37,2013-03-04 20:09:00,
2013-03-04 20:15:00,39.6,35.5,29.73,ESE,114,0.0,0.0,85,0.00,CLR,,0.00,WeatherDisplay:10.37,2013-03-04 20:15:00,
2013-03-04 20:20:00,39.5,35.4,29.73,ESE,114,0.0,0.0,85,0.00,CLR,,0.00,WeatherDisplay:10.37,2013-03-04 20:20:00,
2013-03-04 20:25:00,39.5,35.4,29.73,ESE,114,0.0,0.0,85,0.00,CLR,,0.00,WeatherDisplay:10.37,2013-03-04 20:25:00,
2013-03-04 20:30:00,39.4,35.3,29.73,ESE,114,0.0,0.0,85,0.00,CLR,,0.00,WeatherDisplay:10.37,2013-03-04 20:30:00,
2013-03-04 20:35:00,39.3,35.2,29.73,ESE,114,0.0,0.0,85,0.00,CLR,,0.00,WeatherDisplay:10.37,2013-03-04 20:35:00,
2013-03-04 20:40:00,39.2,35.1,29.73,ESE,114,0.0,0.0,85,0.00,CLR,,0.00,WeatherDisplay:10.37,2013-03-04 20:40:00,
2013-03-04 20:45:00,39.1,35.0,29.73,ESE,114,0.0,0.0,85,0.00,CLR,,0.00,WeatherDisplay:10.37,2013-03-04 20:45:00,
2013-03-04 20:50:00,38.9,34.8,29.73,ESE,114,0.0,0.0,85,0.00,CLR,,0.00,WeatherDisplay:10.37,2013-03-04 20:50:00,
2013-03-04 20:56:00,38.8,34.7,29.73,ESE,114,0.0,0.0,85,0.00,CLR,,0.00,WeatherDisplay:10.37,2013-03-04 20:56:00,
2013-03-04 21:01:00,38.7,34.6,29.73,ESE,113,0.0,0.0,85,0.00,CLR,,0.00,WeatherDisplay:10.37,2013-03-04 21:01:00,
2013-03-04 21:06:00,38.6,34.5,29.73,ESE,114,0.0,0.0,85,0.00,CLR,,0.00,WeatherDisplay:10.37,2013-03-04 21:06:00,
2013-03-04 21:11:00,38.5,34.7,29.73,ESE,114,0.0,0.0,86,0.00,CLR,,0.00,WeatherDisplay:10.37,2013-03-04 21:11:00,
2013-03-04 21:16:00,38.4,34.6,29.73,ESE,114,0.0,0.0,86,0.00,CLR,,0.00,WeatherDisplay:10.37,2013-03-04 21:16:00,
2013-03-04 21:21:00,38.2,34.7,29.73,ESE,114,0.0,0.0,87,0.00,CLR,,0.00,WeatherDisplay:10.37,2013-03-04 21:21:00,
2013-03-04 21:26:00,38.2,34.7,29.73,ESE,114,0.0,0.0,87,0.00,CLR,,0.00,WeatherDisplay:10.37,2013-03-04 21:26:00,
2013-03-04 21:31:00,38.1,34.6,29.73,ESE,114,0.0,0.0,87,0.00,CLR,,0.00,WeatherDisplay:10.37,2013-03-04 21:31:00,
2013-03-04 21:36:00,38.0,34.5,29.73,ESE,114,1.0,1.0,87,0.00,CLR,,0.00,WeatherDisplay:10.37,2013-03-04 21:36:00,
2013-03-04 21:41:00,37.9,34.4,29.73,ESE,113,0.0,0.0,87,0.00,CLR,,0.00,WeatherDisplay:10.37,2013-03-04 21:41:00,
2013-03-04 21:46:00,37.9,34.7,29.73,ESE,114,0.0,0.0,88,0.00,CLR,,0.00,WeatherDisplay:10.37,2013-03-04 21:46:00,
2013-03-04 21:51:00,37.8,34.6,29.73,ESE,114,0.0,0.0,88,0.00,CLR,,0.00,WeatherDisplay:10.37,2013-03-04 21:51:00,
2013-03-04 21:56:00,37.8,34.8,29.73,ESE,114,0.0,0.0,89,0.00,CLR,,0.00,WeatherDisplay:10.37,2013-03-04 21:56:00,
2013-03-04 22:01:00,37.8,34.6,29.73,ESE,114,0.0,0.0,88,0.00,CLR,,0.00,WeatherDisplay:10.37,2013-03-04 22:01:00,
2013-03-04 22:06:00,37.7,34.5,29.73,ESE,114,0.0,0.0,88,0.00,CLR,,0.00,WeatherDisplay:10.37,2013-03-04 22:06:00,
2013-03-04 22:11:00,37.6,34.4,29.73,ESE,113,0.0,0.0,88,0.00,CLR,,0.00,WeatherDisplay:10.37,2013-03-04 22:11:00,
2013-03-04 22:16:00,37.5,34.3,29.72,ESE,114,0.0,0.0,88,0.00,CLR,,0.00,WeatherDisplay:10.37,2013-03-04 22:16:00,
2013-03-04 22:21:00,37.3,34.1,29.72,ESE,114,0.0,0.0,88,0.00,CLR,,0.00,WeatherDisplay:10.37,2013-03-04 22:21:00,
2013-03-04 22:26:00,37.1,33.9,29.72,ESE,113,0.0,0.0,88,0.00,CLR,,0.00,WeatherDisplay:10.37,2013-03-04 22:26:00,
2013-03-04 22:32:00,37.0,33.8,29.72,ESE,114,0.0,0.0,88,0.00,CLR,,0.00,WeatherDisplay:10.37,2013-03-04 22:32:00,
2013-03-04 22:37:00,36.8,33.6,29.72,ESE,113,0.0,0.0,88,0.00,CLR,,0.00,WeatherDisplay:10.37,2013-03-04 22:37:00,
2013-03-04 22:42:00,36.6,33.4,29.72,ESE,114,0.0,0.0,88,0.00,CLR,,0.00,WeatherDisplay:10.37,2013-03-04 22:42:00,
2013-03-04 22:47:00,36.4,33.2,29.72,ESE,114,0.0,0.0,88,0.00,CLR,,0.00,WeatherDisplay:10.37,2013-03-04 22:47:00,
2013-03-04 22:52:00,36.2,33.0,29.72,ESE,114,0.0,0.0,88,0.00,CLR,,0.00,WeatherDisplay:10.37,2013-03-04 22:52:00,
2013-03-04 22:57:00,36.1,32.9,29.72,ESE,113,0.0,0.0,88,0.00,CLR,,0.00,WeatherDisplay:10.37,2013-03-04 22:57:00,
2013-03-04 23:02:00,35.9,32.7,29.72,ESE,114,0.0,0.0,88,0.00,CLR,,0.00,WeatherDisplay:10.37,2013-03-04 23:02:00,
2013-03-04 23:07:00,35.7,32.8,29.72,ESE,114,0.0,0.0,89,0.00,CLR,,0.00,WeatherDisplay:10.37,2013-03-04 23:07:00,
2013-03-04 23:12:00,35.5,32.6,29.72,ESE,114,0.0,0.0,89,0.00,CLR,,0.00,WeatherDisplay:10.37,2013-03-04 23:12:00,
2013-03-04 23:17:00,35.3,32.4,29.72,ESE,113,0.0,0.0,89,0.00,CLR,,0.00,WeatherDisplay:10.37,2013-03-04 23:17:00,
2013-03-04 23:22:00,35.2,32.3,29.72,ESE,115,0.0,0.0,89,0.00,CLR,,0.00,WeatherDisplay:10.37,2013-03-04 23:22:00,
2013-03-04 23:27:00,35.0,32.1,29.72,ESE,114,0.0,0.0,89,0.00,CLR,,0.00,WeatherDisplay:10.37,2013-03-04 23:27:00,
2013-03-04 23:32:00,34.8,31.9,29.71,ESE,114,0.0,0.0,89,0.00,CLR,,0.00,WeatherDisplay:10.37,2013-03-04 23:32:00,
2013-03-04 23:37:00,34.6,31.7,29.71,ESE,114,0.0,0.0,89,0.00,CLR,,0.00,WeatherDisplay:10.37,2013-03-04 23:37:00,
2013-03-04 23:42:00,34.4,31.5,29.71,ESE,114,0.0,0.0,89,0.00,CLR,,0.00,WeatherDisplay:10.37,2013-03-04 23:42:00,
2013-03-04 23:47:00,34.3,31.4,29.70,ESE,114,1.1,0.0,89,0.00,CLR,,0.00,WeatherDisplay:10.37,2013-03-04 23:47:00,
2013-03-04 23:52:00,34.1,31.2,29.70,ESE,114,0.0,0.0,89,0.00,CLR,,0.00,WeatherDisplay:10.37,2013-03-04 23:52:00,
2013-03-04 23:57:00,34.0,31.4,29.70,ESE,113,0.0,0.0,90,0.00,CLR,,0.00,WeatherDisplay:10.37,2013-03-04 23:57:00,